Time;durP1;ratioP1;P1;durP2;ratioP2;P2;SDS_P1;SDS_P2;PMS_P1;PMS_P2;Temp;Humidity;BMP_temperature;BMP_pressure;BME280_temperature;BME280_humidity;BME280_pressure;Samples;Min_cycle;Max_cycle;Signal;HPM_P1;HPM_P2
2023/05/02 00:00:57;;;;;;;15.20;11.30;;;;;;;6.33;100.00;101495.70;107701;1253;74863;-87
2023/05/02 00:03:24;;;;;;;15.80;10.80;;;;;;;6.30;100.00;101494.58;108972;1255;63714;-88
2023/05/02 00:05:51;;;;;;;13.30;10.00;;;;;;;6.29;100.00;101496.35;106347;1253;72680;-88
2023/05/02 00:08:18;;;;;;;13.80;11.20;;;;;;;6.29;100.00;101499.14;105902;1257;61951;-88
2023/05/02 00:10:45;;;;;;;13.90;10.40;;;;;;;6.29;100.00;101502.94;105895;1255;61058;-87
2023/05/02 00:13:12;;;;;;;18.80;12.00;;;;;;;6.30;100.00;101505.34;106553;1252;74433;-86
2023/05/02 00:15:39;;;;;;;13.10;10.80;;;;;;;6.28;100.00;101506.09;107427;1253;65112;-86
2023/05/02 00:18:06;;;;;;;16.20;10.60;;;;;;;6.24;100.00;101509.14;109505;1253;72484;-85
2023/05/02 00:20:33;;;;;;;15.90;10.80;;;;;;;6.18;100.00;101504.64;108785;1256;60501;-82
2023/05/02 00:25:20;;;;;;;14.40;10.20;;;;;;;6.08;100.00;101504.20;104391;1289;615751;-90
2023/05/02 00:27:49;;;;;;;11.60;10.30;;;;;;;5.99;100.00;101506.88;104992;1266;59286;-87
2023/05/02 00:30:17;;;;;;;13.80;10.80;;;;;;;5.94;100.00;101507.52;105014;1270;61165;-87
2023/05/02 00:32:44;;;;;;;13.80;10.60;;;;;;;5.91;100.00;101505.17;104878;1272;73197;-87
2023/05/02 00:35:11;;;;;;;16.10;10.10;;;;;;;5.87;100.00;101509.92;104996;1273;64723;-88
2023/05/02 00:37:39;;;;;;;12.00;9.70;;;;;;;5.86;100.00;101512.56;104491;1264;867759;-86
2023/05/02 00:40:06;;;;;;;15.00;10.40;;;;;;;5.85;100.00;101514.85;105541;1256;62949;-84
2023/05/02 00:42:35;;;;;;;14.60;11.80;;;;;;;5.84;100.00;101511.22;105477;1257;61248;-88
2023/05/02 00:45:05;;;;;;;23.10;11.80;;;;;;;5.86;100.00;101516.58;105525;1258;73291;-89
2023/05/02 00:47:33;;;;;;;14.80;11.80;;;;;;;5.87;100.00;101520.52;105513;1260;64842;-88
2023/05/02 00:50:01;;;;;;;15.80;11.50;;;;;;;5.89;100.00;101518.75;105520;1258;73828;-87
2023/05/02 00:52:30;;;;;;;15.80;13.00;;;;;;;5.91;100.00;101521.13;105886;1251;63058;-89
2023/05/02 00:54:57;;;;;;;16.10;10.70;;;;;;;5.92;100.00;101520.05;105922;1253;61190;-86
2023/05/02 00:57:24;;;;;;;12.10;10.40;;;;;;;5.90;100.00;101521.66;105869;1251;72121;-88
2023/05/02 00:59:51;;;;;;;13.90;11.80;;;;;;;5.90;100.00;101523.77;105935;1256;64646;-91
2023/05/02 01:02:41;;;;;;;13.40;11.00;;;;;;;5.89;100.00;101526.02;106025;1257;73619;-88
2023/05/02 01:05:18;;;;;;;16.90;11.70;;;;;;;5.91;100.00;101531.37;106264;1251;62041;-90
2023/05/02 01:08:21;;;;;;;14.20;10.00;;;;;;;5.95;100.00;101525.55;106069;1256;60357;-88
2023/05/02 01:11:15;;;;;;;12.60;9.70;;;;;;;5.98;100.00;101531.02;105933;1256;73920;-86
2023/05/02 01:13:44;;;;;;;14.80;11.10;;;;;;;6.01;100.00;101534.05;106312;1251;63874;-88
2023/05/02 01:16:12;;;;;;;13.00;9.60;;;;;;;6.02;100.00;101536.30;108393;1251;73581;-85
2023/05/02 01:18:40;;;;;;;12.70;9.10;;;;;;;6.02;100.00;101540.31;109720;1251;62256;-86
2023/05/02 01:21:08;;;;;;;11.10;10.00;;;;;;;5.99;100.00;101545.58;109659;1251;60424;-85
2023/05/02 01:24:16;;;;;;;11.20;8.40;;;;;;;5.97;100.00;101547.89;109167;1254;73452;-83
2023/05/02 01:27:13;;;;;;;11.60;9.50;;;;;;;5.96;100.00;101553.30;108338;1251;63625;-87
2023/05/02 01:29:41;;;;;;;15.70;9.80;;;;;;;5.97;100.00;101552.23;109724;1251;73760;-85
2023/05/02 01:32:08;;;;;;;13.30;10.40;;;;;;;5.94;100.00;101555.44;108748;1255;60904;-86
2023/05/02 01:34:38;;;;;;;16.00;10.30;;;;;;;5.90;100.00;101553.77;107180;1253;60292;-86
2023/05/02 01:37:05;;;;;;;15.70;10.60;;;;;;;5.86;100.00;101553.86;106231;1256;73097;-88
2023/05/02 01:39:31;;;;;;;13.20;8.90;;;;;;;5.80;100.00;101552.11;106046;1255;64796;-88
2023/05/02 01:41:58;;;;;;;15.00;8.50;;;;;;;5.73;100.00;101554.20;105903;1251;72805;-88
2023/05/02 01:44:25;;;;;;;13.20;8.80;;;;;;;5.63;100.00;101557.03;105876;1251;61015;-86
2023/05/02 01:46:53;;;;;;;12.10;8.90;;;;;;;5.53;100.00;101558.66;105876;1257;61645;-86
2023/05/02 01:49:20;;;;;;;10.90;8.60;;;;;;;5.47;100.00;101561.41;105932;1257;73884;-87
2023/05/02 01:51:49;;;;;;;11.20;9.20;;;;;;;5.44;100.00;101562.17;105987;1256;64776;-86
2023/05/02 01:54:16;;;;;;;10.90;8.30;;;;;;;5.43;100.00;101565.84;105963;1251;73564;-88
2023/05/02 01:56:44;;;;;;;10.70;7.00;;;;;;;5.40;100.00;101562.61;105951;1251;62223;-87
2023/05/02 01:59:13;;;;;;;13.20;8.40;;;;;;;5.38;100.00;101567.52;105804;1251;60114;-86
2023/05/02 02:01:42;;;;;;;11.80;7.70;;;;;;;5.38;100.00;101573.93;106054;1257;73880;-89
2023/05/02 02:04:12;;;;;;;10.90;9.00;;;;;;;5.38;100.00;101578.95;105978;1257;65561;-86
2023/05/02 02:06:39;;;;;;;12.50;8.50;;;;;;;5.39;100.00;101576.34;106050;1256;73831;-86
2023/05/02 02:09:07;;;;;;;12.20;9.30;;;;;;;5.39;100.00;101584.30;105985;1254;63166;-88
2023/05/02 02:11:36;;;;;;;10.40;8.60;;;;;;;5.40;100.00;101586.73;105872;1251;61106;-89
2023/05/02 02:14:07;;;;;;;8.80;7.20;;;;;;;5.41;100.00;101587.41;106035;1251;74070;-87
2023/05/02 02:16:37;;;;;;;11.00;8.40;;;;;;;5.39;100.00;101589.33;106010;1256;65010;-89
2023/05/02 02:19:06;;;;;;;11.50;7.30;;;;;;;5.37;100.00;101591.65;106098;1252;74262;-87
2023/05/02 02:21:34;;;;;;;10.90;8.70;;;;;;;5.34;100.00;101594.48;106004;1257;63709;-87
2023/05/02 02:24:02;;;;;;;12.60;8.70;;;;;;;5.33;100.00;101600.56;106118;1257;60438;-87
2023/05/02 02:26:29;;;;;;;12.10;8.70;;;;;;;5.30;100.00;101608.44;107732;1251;73961;-84
2023/05/02 02:28:56;;;;;;;12.20;9.40;;;;;;;5.30;100.00;101610.36;109505;1251;63695;-84
2023/05/02 02:31:24;;;;;;;15.80;10.10;;;;;;;5.31;100.00;101621.08;108520;1251;72617;-85
2023/05/02 02:33:51;;;;;;;14.30;10.50;;;;;;;5.31;100.00;101627.48;106651;1256;61677;-87
2023/05/02 02:36:42;;;;;;;13.80;10.30;;;;;;;5.32;100.00;101626.08;108197;1251;60169;-87
2023/05/02 02:39:38;;;;;;;16.10;10.00;;;;;;;5.32;100.00;101626.09;108673;1256;73008;-87
2023/05/02 02:42:24;;;;;;;12.70;7.50;;;;;;;5.30;100.00;101628.90;106358;1251;64698;-87
2023/05/02 02:44:55;;;;;;;12.00;8.10;;;;;;;5.29;100.00;101632.75;106006;1256;72509;-89
2023/05/02 02:47:25;;;;;;;11.00;8.10;;;;;;;5.29;100.00;101638.63;105981;1256;62896;-87
2023/05/02 02:50:30;;;;;;;9.20;8.20;;;;;;;5.29;100.00;101641.23;105945;1251;61327;-87
2023/05/02 02:53:37;;;;;;;12.90;9.40;;;;;;;5.26;100.00;101647.71;105986;1251;73024;-89
2023/05/02 02:56:05;;;;;;;10.70;8.90;;;;;;;5.27;100.00;101652.71;105708;1256;64814;-87
2023/05/02 02:58:47;;;;;;;9.40;7.20;;;;;;;5.31;100.00;101656.97;106074;1257;72635;-89
2023/05/02 03:01:16;;;;;;;10.20;8.60;;;;;;;5.31;100.00;101654.88;105980;1255;61975;-87
2023/05/02 03:03:43;;;;;;;8.90;7.80;;;;;;;5.32;100.00;101659.73;106095;1257;60469;-85
2023/05/02 03:06:10;;;;;;;11.50;8.30;;;;;;;5.35;100.00;101663.63;106009;1257;74310;-89
2023/05/02 03:08:42;;;;;;;9.90;8.30;;;;;;;5.36;100.00;101670.90;105904;1251;64852;-87
2023/05/02 03:11:11;;;;;;;11.90;8.20;;;;;;;5.40;100.00;101668.91;106048;1256;72714;-90
2023/05/02 03:13:38;;;;;;;16.60;9.10;;;;;;;5.46;100.00;101675.90;105989;1251;61787;-86
2023/05/02 03:16:24;;;;;;;13.30;8.20;;;;;;;5.52;100.00;101678.20;105971;1266;60811;-90
2023/05/02 03:18:51;;;;;;;11.30;8.30;;;;;;;5.54;100.00;101680.23;106021;1257;73017;-86
2023/05/02 03:21:18;;;;;;;17.10;9.40;;;;;;;5.59;100.00;101677.52;106067;1251;63691;-87
2023/05/02 03:23:45;;;;;;;10.90;8.80;;;;;;;5.64;100.00;101680.20;106068;1254;72793;-86
2023/05/02 03:26:12;;;;;;;12.80;9.30;;;;;;;5.65;100.00;101687.10;105934;1251;61021;-88
2023/05/02 03:28:40;;;;;;;12.70;9.30;;;;;;;5.66;100.00;101687.77;106315;1252;61168;-86
2023/05/02 03:31:08;;;;;;;11.00;9.10;;;;;;;5.68;100.00;101690.34;107408;1251;74091;-85
2023/05/02 03:33:35;;;;;;;10.90;8.40;;;;;;;5.73;100.00;101696.13;109700;1251;64763;-86
2023/05/02 03:36:02;;;;;;;10.30;8.30;;;;;;;5.77;100.00;101694.30;109541;1251;73014;-85
2023/05/02 03:38:30;;;;;;;13.10;8.30;;;;;;;5.85;100.00;101695.66;108060;1256;61602;-87
2023/05/02 03:40:58;;;;;;;10.80;8.10;;;;;;;5.93;100.00;101704.02;107227;1251;60948;-85
2023/05/02 03:43:25;;;;;;;10.40;8.30;;;;;;;6.02;100.00;101707.29;108969;1251;72689;-85
2023/05/02 03:45:52;;;;;;;11.60;8.90;;;;;;;6.10;100.00;101706.57;109231;1250;63444;-86
2023/05/02 03:48:19;;;;;;;10.30;8.50;;;;;;;6.20;100.00;101713.80;106922;1251;72517;-86
2023/05/02 03:50:47;;;;;;;11.50;8.80;;;;;;;6.29;100.00;101714.46;106205;1257;63485;-87
2023/05/02 03:53:15;;;;;;;13.30;8.60;;;;;;;6.35;100.00;101714.30;107457;1251;61979;-86
2023/05/02 03:55:46;;;;;;;9.80;8.20;;;;;;;6.43;100.00;101720.71;109611;1251;73027;-87
2023/05/02 03:58:16;;;;;;;9.50;8.50;;;;;;;6.53;100.00;101719.08;106429;1251;63727;-86
2023/05/02 04:00:44;;;;;;;13.10;8.70;;;;;;;6.65;100.00;101724.14;106074;1251;73876;-88
2023/05/02 04:03:11;;;;;;;12.30;10.70;;;;;;;6.78;100.00;101729.71;105809;1257;63223;-89
2023/05/02 04:05:41;;;;;;;12.30;10.00;;;;;;;6.92;100.00;101727.95;106104;1251;60434;-88
2023/05/02 04:08:10;;;;;;;15.80;10.80;;;;;;;7.10;100.00;101732.84;105977;1257;74143;-87
2023/05/02 04:10:37;;;;;;;11.00;9.80;;;;;;;7.43;100.00;101734.71;105978;1251;64338;-88
2023/05/02 04:13:07;;;;;;;11.90;9.20;;;;;;;7.91;100.00;101736.77;106181;1251;73660;-90
2023/05/02 04:15:35;;;;;;;10.70;8.60;;;;;;;8.37;100.00;101733.02;106369;1251;62435;-86
2023/05/02 04:18:02;;;;;;;9.40;8.00;;;;;;;8.80;100.00;101738.08;105999;1251;60328;-89
2023/05/02 04:20:30;;;;;;;10.40;7.90;;;;;;;9.17;100.00;101745.14;106310;1251;74121;-86
2023/05/02 04:22:57;;;;;;;11.20;8.40;;;;;;;9.46;100.00;101748.27;106184;1257;64944;-87
2023/05/02 04:25:26;;;;;;;6.90;5.50;;;;;;;9.61;100.00;101753.47;106054;1257;73596;-85
2023/05/02 04:27:55;;;;;;;9.00;5.00;;;;;;;9.71;100.00;101757.80;106111;1251;61343;-88
2023/05/02 04:30:24;;;;;;;11.00;5.90;;;;;;;9.82;100.00;101762.27;106074;1251;61193;-88
2023/05/02 04:32:59;;;;;;;5.60;4.80;;;;;;;9.94;100.00;101766.55;106725;1251;74240;-86
2023/05/02 04:35:30;;;;;;;5.00;4.50;;;;;;;10.04;100.00;101769.44;106881;1251;63807;-85
2023/05/02 04:37:57;;;;;;;4.30;3.70;;;;;;;10.13;100.00;101772.96;108860;1251;71853;-85
2023/05/02 04:40:25;;;;;;;6.20;4.10;;;;;;;10.21;100.00;101775.27;109464;1251;62810;-83
2023/05/02 04:42:59;;;;;;;7.60;5.30;;;;;;;10.31;100.00;101781.52;108803;1251;60383;-85
2023/05/02 04:45:35;;;;;;;7.60;4.40;;;;;;;10.48;100.00;101781.20;106113;1257;73744;-88
2023/05/02 04:48:05;;;;;;;4.60;4.10;;;;;;;10.65;100.00;101783.30;106189;1256;65129;-86
2023/05/02 04:50:32;;;;;;;5.70;4.70;;;;;;;10.79;100.00;101784.98;106221;1256;73717;-88
2023/05/02 04:53:00;;;;;;;6.40;4.10;;;;;;;11.01;100.00;101787.70;106153;1255;62796;-88
2023/05/02 04:55:27;;;;;;;4.50;4.00;;;;;;;11.39;100.00;101790.09;106845;1251;61558;-86
2023/05/02 04:57:55;;;;;;;6.00;4.00;;;;;;;11.88;100.00;101793.15;108594;1251;73752;-84
2023/05/02 05:00:22;;;;;;;6.00;3.70;;;;;;;12.50;100.00;101794.90;107889;1255;65400;-84
2023/05/02 05:02:49;;;;;;;4.50;3.80;;;;;;;13.23;99.68;101799.65;106395;1251;73520;-88
2023/05/02 05:05:16;;;;;;;5.50;4.10;;;;;;;13.94;96.65;101801.15;106419;1251;61208;-84
2023/05/02 05:07:45;;;;;;;5.40;4.10;;;;;;;14.63;93.21;101802.69;107387;1251;62840;-88
2023/05/02 05:10:12;;;;;;;6.20;3.80;;;;;;;15.26;88.37;101803.91;106668;1251;73693;-86
2023/05/02 05:12:43;;;;;;;6.40;3.60;;;;;;;15.81;85.29;101806.02;109062;1251;64828;-86
2023/05/02 05:15:10;;;;;;;4.10;3.30;;;;;;;16.27;82.28;101814.55;107999;1251;72587;-90
2023/05/02 05:17:39;;;;;;;5.10;3.30;;;;;;;16.73;79.23;101812.61;106324;1251;60561;-87
2023/05/02 05:20:10;;;;;;;4.90;3.30;;;;;;;17.17;76.86;101811.25;106356;1257;60849;-89
2023/05/02 05:22:40;;;;;;;7.20;3.40;;;;;;;17.60;71.15;101810.20;106437;1256;74878;-88
2023/05/02 05:25:08;;;;;;;6.60;3.00;;;;;;;17.88;64.17;101810.88;106096;1251;64724;-87
2023/05/02 05:27:36;;;;;;;4.90;3.10;;;;;;;18.14;64.27;101815.02;106058;1251;73750;-87
2023/05/02 05:30:05;;;;;;;5.50;3.50;;;;;;;18.41;60.00;101813.79;106065;1255;61370;-88
2023/05/02 05:32:33;;;;;;;4.40;2.90;;;;;;;18.67;57.43;101814.31;106041;1251;60357;-90
2023/05/02 05:35:01;;;;;;;2.90;2.60;;;;;;;19.01;54.98;101815.11;106120;1256;74953;-88
2023/05/02 05:37:29;;;;;;;4.20;3.40;;;;;;;19.35;52.10;101813.90;106126;1256;64629;-87
2023/05/02 05:39:58;;;;;;;3.40;3.00;;;;;;;19.61;51.13;101814.18;106140;1256;72623;-86
2023/05/02 05:42:27;;;;;;;3.80;3.00;;;;;;;19.79;49.33;101811.92;107891;1251;61321;-86
2023/05/02 05:44:58;;;;;;;3.70;3.00;;;;;;;19.91;47.97;101808.83;109182;1251;60076;-84
2023/05/02 05:47:27;;;;;;;4.00;2.60;;;;;;;20.05;49.18;101808.36;109626;1251;74965;-85
2023/05/02 05:49:55;;;;;;;4.30;3.00;;;;;;;20.29;47.71;101811.42;109752;1251;63867;-87
2023/05/02 05:52:26;;;;;;;5.10;4.60;;;;;;;20.49;47.90;101814.02;106601;1251;73538;-87
2023/05/02 05:54:57;;;;;;;4.10;2.80;;;;;;;20.74;46.28;101814.06;107806;1251;61889;-88
2023/05/02 05:57:26;;;;;;;3.10;2.50;;;;;;;20.92;45.18;101810.61;108855;1251;60377;-86
2023/05/02 05:59:56;;;;;;;17.90;13.40;;;;;;;21.17;44.43;101810.11;109870;1253;74903;-85
2023/05/02 06:02:23;;;;;;;3.90;3.30;;;;;;;21.22;42.40;101808.91;107272;1251;63738;-86
2023/05/02 06:04:50;;;;;;;5.10;3.40;;;;;;;21.36;42.98;101812.34;106258;1251;73432;-86
2023/05/02 06:07:20;;;;;;;3.80;3.40;;;;;;;21.65;42.81;101809.46;106085;1251;61491;-89
2023/05/02 06:09:47;;;;;;;5.00;3.50;;;;;;;21.88;41.26;101808.67;106086;1255;61307;-88
2023/05/02 06:12:15;;;;;;;4.30;3.30;;;;;;;22.04;40.96;101814.02;106062;1255;73992;-87
2023/05/02 06:14:43;;;;;;;5.00;3.00;;;;;;;22.21;39.35;101812.02;105938;1251;63961;-91
2023/05/02 06:17:09;;;;;;;4.30;2.80;;;;;;;22.36;38.64;101811.22;106231;1251;71805;-88
2023/05/02 06:19:37;;;;;;;6.10;3.10;;;;;;;22.55;39.09;101808.21;106080;1251;61431;-87
2023/05/02 06:22:06;;;;;;;3.50;2.00;;;;;;;22.75;39.21;101812.42;106128;1251;62760;-86
2023/05/02 06:24:33;;;;;;;3.30;2.50;;;;;;;22.99;37.29;101810.88;105938;1257;74716;-87
2023/05/02 06:27:01;;;;;;;3.40;2.50;;;;;;;23.19;37.00;101808.30;106197;1251;64781;-86
2023/05/02 06:29:28;;;;;;;3.50;2.40;;;;;;;23.21;36.58;101805.16;107845;1251;73469;-86
2023/05/02 06:31:55;;;;;;;4.20;2.50;;;;;;;23.22;36.68;101808.54;109537;1251;60190;-87
2023/05/02 06:34:23;;;;;;;3.70;2.70;;;;;;;23.37;36.98;101812.88;106023;1251;60972;-89
2023/05/02 06:36:55;;;;;;;3.30;2.20;;;;;;;23.51;36.95;101813.88;105961;1255;74806;-91
2023/05/02 06:39:22;;;;;;;4.30;2.50;;;;;;;23.65;37.22;101816.27;106159;1251;64559;-91
2023/05/02 06:41:49;;;;;;;3.10;2.40;;;;;;;23.86;35.79;101815.85;106046;1251;73596;-87
2023/05/02 06:44:17;;;;;;;2.20;2.00;;;;;;;24.13;35.39;101817.00;106363;1251;60482;-89
2023/05/02 06:46:44;;;;;;;5.10;2.30;;;;;;;24.38;36.48;101819.67;106163;1256;60526;-88
2023/05/02 06:49:11;;;;;;;2.50;2.10;;;;;;;24.64;34.19;101818.98;108658;1251;74757;-86
2023/05/02 06:51:38;;;;;;;3.00;2.40;;;;;;;24.87;34.37;101820.16;108251;1250;63770;-85
2023/05/02 06:54:05;;;;;;;2.80;2.60;;;;;;;25.00;34.63;101824.73;106952;1251;73368;-87
2023/05/02 06:56:33;;;;;;;2.50;2.30;;;;;;;25.14;33.90;101817.23;106038;1251;61837;-88
2023/05/02 06:59:00;;;;;;;2.30;2.20;;;;;;;25.24;33.95;101819.37;106039;1253;61214;-89
2023/05/02 07:01:27;;;;;;;7.00;3.20;;;;;;;25.36;32.74;101816.04;105949;1251;75500;-89
2023/05/02 07:03:54;;;;;;;4.00;2.30;;;;;;;25.33;32.50;101814.86;106271;1253;64728;-84
2023/05/02 07:06:21;;;;;;;4.80;2.00;;;;;;;25.34;32.31;101819.63;106182;1254;72642;-89
2023/05/02 07:08:55;;;;;;;2.80;1.90;;;;;;;25.30;32.07;101818.07;106756;1251;62032;-86
2023/05/02 07:11:42;;;;;;;2.10;1.50;;;;;;;25.34;31.85;101815.70;107149;1251;60357;-90
2023/05/02 07:14:09;;;;;;;1.60;1.50;;;;;;;25.46;32.17;101817.80;106029;1256;73799;-87
2023/05/02 07:16:36;;;;;;;3.40;1.70;;;;;;;25.70;31.22;101817.95;106093;1251;65159;-88
2023/05/02 07:19:05;;;;;;;1.90;1.30;;;;;;;25.86;31.25;101820.43;106039;1251;74550;-89
2023/05/02 07:21:34;;;;;;;3.60;1.60;;;;;;;25.99;29.77;101823.67;105944;1251;62045;-92
2023/05/02 07:24:01;;;;;;;1.90;1.80;;;;;;;26.06;29.88;101824.64;105980;1251;60848;-89
2023/05/02 07:26:28;;;;;;;3.20;1.40;;;;;;;26.11;30.02;101824.45;105837;1256;74574;-87
2023/05/02 07:28:55;;;;;;;4.90;2.20;;;;;;;26.18;30.41;101827.95;105880;1256;64389;-89
2023/05/02 07:31:24;;;;;;;2.60;1.50;;;;;;;26.15;28.92;101828.82;106148;1255;74322;-90
2023/05/02 07:33:51;;;;;;;4.70;3.30;;;;;;;25.97;29.93;101831.42;106091;1256;61230;-91
2023/05/02 07:36:18;;;;;;;8.30;7.20;;;;;;;25.86;28.52;101828.70;105998;1256;61282;-88
2023/05/02 07:38:45;;;;;;;2.70;1.90;;;;;;;25.73;29.00;101824.27;105876;1251;73681;-89
2023/05/02 07:41:13;;;;;;;3.70;2.60;;;;;;;25.76;28.51;101826.83;106031;1250;63712;-85
2023/05/02 07:43:40;;;;;;;3.70;1.80;;;;;;;25.92;28.69;101823.89;106018;1251;73449;-88
2023/05/02 07:46:07;;;;;;;2.80;1.00;;;;;;;26.10;30.06;101824.52;106541;1251;61754;-88
2023/05/02 07:48:35;;;;;;;5.00;1.70;;;;;;;26.29;30.21;101822.62;109029;1251;61413;-87
2023/05/02 07:51:09;;;;;;;5.10;1.20;;;;;;;26.54;29.86;101823.02;107534;1255;73887;-89
2023/05/02 07:53:36;;;;;;;1.70;1.10;;;;;;;26.81;29.11;101820.08;106991;1251;64024;-86
2023/05/02 07:56:05;;;;;;;5.60;1.60;;;;;;;26.99;28.02;101819.35;109441;1251;72624;-86
2023/05/02 07:58:36;;;;;;;0.90;0.90;;;;;;;27.03;27.78;101822.77;108236;1251;60479;-86
2023/05/02 08:01:03;;;;;;;3.50;1.40;;;;;;;27.09;27.70;101822.29;109856;1251;59998;-89
2023/05/02 08:03:31;;;;;;;3.30;1.50;;;;;;;27.18;27.62;101819.52;108766;1251;73670;-88
2023/05/02 08:05:58;;;;;;;1.40;1.20;;;;;;;27.34;26.94;101822.23;106046;1251;63870;-88
2023/05/02 08:08:25;;;;;;;2.40;1.00;;;;;;;27.41;26.56;101820.72;108163;1251;72595;-89
2023/05/02 08:10:52;;;;;;;1.10;0.70;;;;;;;27.45;25.09;101820.94;109342;1251;61412;-88
2023/05/02 08:13:19;;;;;;;0.60;0.60;;;;;;;27.54;23.41;101820.50;108836;1251;60434;-90
2023/05/02 08:15:46;;;;;;;1.70;0.60;;;;;;;27.55;23.89;101820.50;106127;1251;73672;-87
2023/05/02 08:18:13;;;;;;;4.60;0.60;;;;;;;27.50;23.14;101818.20;106334;1251;63558;-89
2023/05/02 08:20:40;;;;;;;1.70;0.60;;;;;;;27.46;22.32;101821.08;108180;1251;72631;-90
2023/05/02 08:23:07;;;;;;;0.90;0.30;;;;;;;27.45;22.51;101815.04;106163;1251;61339;-91
2023/05/02 08:25:34;;;;;;;2.80;1.00;;;;;;;27.41;22.20;101819.88;106113;1251;60542;-93
2023/05/02 08:28:00;;;;;;;20.30;18.20;;;;;;;27.28;22.49;101813.62;106121;1251;74818;-89
2023/05/02 08:30:28;;;;;;;4.30;3.70;;;;;;;27.05;22.10;101814.48;107130;1251;64775;-90
2023/05/02 08:32:55;;;;;;;1.60;1.30;;;;;;;26.89;22.80;101815.70;106788;1257;73659;-91
2023/05/02 08:35:22;;;;;;;2.90;0.70;;;;;;;26.81;22.35;101813.95;106234;1253;61171;-86
2023/05/02 08:37:49;;;;;;;1.30;1.20;;;;;;;26.83;22.06;101810.28;105973;1251;61317;-87
2023/05/02 08:40:17;;;;;;;1.60;1.20;;;;;;;27.01;22.34;101805.41;105994;1251;75304;-87
2023/05/02 08:43:01;;;;;;;0.80;0.50;;;;;;;26.98;21.99;101813.27;106087;1251;65069;-88
2023/05/02 08:45:29;;;;;;;2.00;0.60;;;;;;;27.01;22.05;101811.23;106346;1255;73782;-88
2023/05/02 08:47:56;;;;;;;3.10;0.70;;;;;;;26.96;21.66;101809.77;105982;1256;61252;-88
2023/05/02 08:50:23;;;;;;;1.80;0.40;;;;;;;26.99;20.95;101810.30;106063;1251;62124;-89
2023/05/02 08:52:50;;;;;;;0.70;0.30;;;;;;;26.83;21.12;101806.01;106062;1255;74456;-89
2023/05/02 08:55:17;;;;;;;2.30;0.30;;;;;;;26.73;21.47;101809.30;106359;1251;63791;-87
2023/05/02 08:57:44;;;;;;;1.90;0.90;;;;;;;26.81;21.10;101806.77;106076;1251;72695;-90
2023/05/02 09:00:12;;;;;;;3.10;0.60;;;;;;;26.85;21.36;101806.12;106196;1255;61142;-86
2023/05/02 09:03:30;;;;;;;1.20;0.40;;;;;;;26.91;21.59;101799.55;107711;1251;61319;-86
2023/05/02 09:06:18;;;;;;;2.30;0.40;;;;;;;26.95;22.66;101801.70;108533;1258;73784;-88
2023/05/02 09:08:53;;;;;;;1.50;0.30;;;;;;;27.02;21.86;101796.71;107088;1259;64075;-90
2023/05/02 09:11:20;;;;;;;1.80;0.60;;;;;;;27.09;22.07;101797.02;106309;1259;72557;-90
2023/05/02 09:13:57;;;;;;;2.00;0.40;;;;;;;27.14;20.69;101794.61;105967;1260;60602;-88
2023/05/02 09:16:25;;;;;;;3.30;0.40;;;;;;;26.98;20.63;101794.61;105539;1260;60718;-89
2023/05/02 09:18:54;;;;;;;1.50;0.60;;;;;;;26.86;21.79;101795.58;105811;1260;73819;-91
2023/05/02 09:21:24;;;;;;;1.30;0.30;;;;;;;27.00;22.05;101794.80;105457;1260;64211;-87
2023/05/02 09:36:21;;;;;;;0.90;0.50;;;;;;;26.76;21.98;101798.88;102912;1292;600850;-91
2023/05/02 09:38:49;;;;;;;2.80;0.50;;;;;;;26.64;22.15;101796.51;104826;1268;61216;-89
2023/05/02 09:41:20;;;;;;;2.60;0.60;;;;;;;26.55;22.08;101803.94;105060;1272;61102;-90
2023/05/02 09:43:58;;;;;;;13.20;11.90;;;;;;;26.42;22.27;101800.98;105109;1264;74438;-90
2023/05/02 09:46:25;;;;;;;5.20;2.00;;;;;;;26.21;21.98;101795.02;105236;1264;65992;-89
2023/05/02 09:48:56;;;;;;;0.70;0.50;;;;;;;26.24;22.97;101801.55;104388;1266;927706;-89
2023/05/02 09:51:24;;;;;;;2.30;1.50;;;;;;;26.38;22.33;101804.25;105423;1266;62403;-88
2023/05/02 09:53:51;;;;;;;2.00;0.70;;;;;;;26.34;21.04;101803.13;105113;1260;61416;-88
2023/05/02 09:56:18;;;;;;;3.00;0.50;;;;;;;26.33;22.65;101806.42;105264;1260;73993;-90
2023/05/02 09:58:45;;;;;;;2.30;0.70;;;;;;;26.38;21.94;101805.77;105358;1261;64749;-90
2023/05/02 10:01:18;;;;;;;6.90;0.60;;;;;;;26.49;22.02;101807.55;105350;1260;74770;-92
2023/05/02 10:03:46;;;;;;;3.90;0.90;;;;;;;26.62;22.67;101802.19;105765;1260;62492;-90
2023/05/02 10:06:15;;;;;;;0.80;0.60;;;;;;;26.70;22.82;101799.39;105881;1267;62563;-88
2023/05/02 10:08:44;;;;;;;1.80;0.50;;;;;;;26.77;23.13;101800.77;107171;1257;75155;-87
2023/05/02 10:11:11;;;;;;;1.10;0.30;;;;;;;26.87;22.77;101800.75;107579;1261;64530;-88
2023/05/02 10:13:41;;;;;;;1.10;0.60;;;;;;;27.00;22.63;101797.66;109317;1257;73297;-84
2023/05/02 10:16:11;;;;;;;1.10;0.50;;;;;;;27.10;22.58;101797.79;108200;1260;61318;-90
2023/05/02 10:18:51;;;;;;;8.00;0.80;;;;;;;27.13;22.32;101794.28;106008;1254;61376;-87
2023/05/02 10:21:26;;;;;;;2.30;0.40;;;;;;;27.09;21.69;101796.48;106427;1254;74961;-86
2023/05/02 10:23:53;;;;;;;3.70;0.60;;;;;;;27.00;21.15;101801.31;109517;1254;65169;-85
2023/05/02 10:26:22;;;;;;;2.40;0.40;;;;;;;26.82;21.26;101797.70;108666;1257;73520;-85
2023/05/02 10:28:50;;;;;;;2.20;0.50;;;;;;;26.64;21.98;101802.36;106345;1257;61246;-90
2023/05/02 10:31:17;;;;;;;5.00;1.70;;;;;;;26.54;21.65;101799.32;106046;1251;62274;-92
2023/05/02 10:33:46;;;;;;;5.90;0.60;;;;;;;26.45;22.52;101798.30;106085;1250;74938;-88
2023/05/02 10:36:13;;;;;;;2.80;0.70;;;;;;;26.51;22.42;101801.83;106109;1251;65120;-87
2023/05/02 10:38:42;;;;;;;0.80;0.50;;;;;;;26.52;21.76;101804.34;106204;1257;74563;-90
2023/05/02 10:41:12;;;;;;;1.90;0.50;;;;;;;26.47;22.13;101804.00;105995;1251;62425;-88
2023/05/02 10:43:39;;;;;;;2.20;0.70;;;;;;;26.39;22.78;101800.27;106144;1256;61333;-93
2023/05/02 10:46:28;;;;;;;0.80;0.70;;;;;;;26.46;23.05;101799.30;105886;1251;75053;-86
2023/05/02 10:49:06;;;;;;;1.20;0.60;;;;;;;26.59;22.66;101798.65;105916;1251;65684;-91
2023/05/02 10:51:34;;;;;;;4.90;0.50;;;;;;;26.70;22.74;101802.08;105999;1251;74681;-89
2023/05/02 10:54:16;;;;;;;1.00;0.70;;;;;;;26.68;22.51;101800.27;106261;1254;59604;-91
2023/05/02 10:57:02;;;;;;;0.60;0.50;;;;;;;26.55;22.60;101796.55;106391;1251;60909;-87
2023/05/02 10:59:32;;;;;;;1.40;0.60;;;;;;;26.49;22.37;101793.73;107148;1251;74515;-91
2023/05/02 11:02:00;;;;;;;204.80;182.40;;;;;;;26.44;22.86;101799.30;106514;1251;64655;-91
2023/05/02 11:05:01;;;;;;;1.80;0.80;;;;;;;26.40;22.92;101796.89;106337;1251;74674;-87
2023/05/02 11:07:30;;;;;;;10.50;8.10;;;;;;;26.29;22.47;101796.77;106333;1251;61206;-89
2023/05/02 11:10:16;;;;;;;3.20;1.50;;;;;;;26.21;22.94;101793.40;107869;1251;62850;-88
2023/05/02 11:12:49;;;;;;;2.20;0.40;;;;;;;26.12;22.49;101791.48;108171;1251;74642;-88
2023/05/02 11:15:28;;;;;;;0.80;0.60;;;;;;;26.03;22.66;101794.82;107716;1253;66186;-88
2023/05/02 11:18:00;;;;;;;2.20;0.50;;;;;;;25.99;23.34;101787.39;106824;1254;73726;-89
2023/05/02 11:20:27;;;;;;;1.90;0.70;;;;;;;26.00;23.96;101789.94;106116;1251;62574;-89
2023/05/02 11:22:55;;;;;;;1.70;0.90;;;;;;;26.03;23.37;101786.02;106589;1251;60465;-92
2023/05/02 11:25:29;;;;;;;3.80;2.10;;;;;;;25.97;23.06;101785.98;106625;1251;74658;-87
2023/05/02 11:27:56;;;;;;;1.30;0.70;;;;;;;25.81;22.96;101783.45;106062;1256;65693;-91
2023/05/02 11:30:43;;;;;;;0.80;0.70;;;;;;;25.53;23.31;101778.79;105977;1257;73509;-91
2023/05/02 11:33:11;;;;;;;0.70;0.60;;;;;;;25.12;23.35;101777.86;106109;1251;62362;-89
2023/05/02 11:35:38;;;;;;;2.50;0.60;;;;;;;24.89;23.99;101783.94;106077;1251;62421;-86
2023/05/02 11:38:10;;;;;;;3.00;0.80;;;;;;;24.64;23.84;101786.70;105845;1251;77040;-88
2023/05/02 11:40:38;;;;;;;1.20;0.60;;;;;;;24.33;24.90;101784.20;108871;1251;65990;-88